Time;durP1;ratioP1;P1;durP2;ratioP2;P2;SDS_P1;SDS_P2;PMS_P1;PMS_P2;Temp;Humidity;BMP_temperature;BMP_pressure;BME280_temperature;BME280_humidity;BME280_pressure;Samples;Min_cycle;Max_cycle;Signal;HPM_P1;HPM_P2
2023/02/25 00:02:19;;;;;;;10.85;2.92;;;;;;;4.01;100.00;98824.78;5116708;27;20205;-69
2023/02/25 00:05:06;;;;;;;9.52;3.15;;;;;;;3.87;100.00;98821.31;5100830;28;20183;-69
2023/02/25 00:07:41;;;;;;;19.40;2.80;;;;;;;3.86;100.00;98814.31;5111627;27;20214;-69
2023/02/25 00:10:17;;;;;;;3.92;1.90;;;;;;;3.96;100.00;98823.78;5121847;27;20262;-70
2023/02/25 00:12:53;;;;;;;11.88;3.33;;;;;;;3.91;100.00;98819.88;5114796;27;20208;-68
2023/02/25 00:15:35;;;;;;;7.47;2.67;;;;;;;3.86;100.00;98849.09;5120615;27;20210;-69
2023/02/25 00:18:09;;;;;;;5.85;1.50;;;;;;;3.29;100.00;98854.28;5111222;27;20778;-68
2023/02/25 00:20:47;;;;;;;1.98;1.20;;;;;;;2.68;100.00;98851.69;5095670;28;20648;-69
2023/02/25 00:23:22;;;;;;;1.85;1.17;;;;;;;2.29;100.00;98862.22;5111847;28;20599;-67
2023/02/25 00:26:04;;;;;;;5.32;1.05;;;;;;;2.10;100.00;98853.09;5122973;28;20197;-68
2023/02/25 00:28:41;;;;;;;4.57;1.35;;;;;;;1.90;100.00;98853.00;5114440;28;20238;-69
2023/02/25 00:31:20;;;;;;;2.80;1.20;;;;;;;2.08;100.00;98855.97;5116416;28;20194;-69
2023/02/25 00:34:02;;;;;;;2.10;1.05;;;;;;;1.88;100.00;98855.06;5097262;28;20194;-69
2023/02/25 00:36:38;;;;;;;8.75;1.35;;;;;;;1.90;100.00;98858.31;5096309;28;20642;-68
2023/02/25 00:39:13;;;;;;;4.15;2.05;;;;;;;1.95;100.00;98863.91;5111504;28;20197;-68
2023/02/25 00:41:46;;;;;;;1.88;1.00;;;;;;;1.80;100.00;98860.53;5124505;28;20190;-69
2023/02/25 00:44:17;;;;;;;6.90;1.48;;;;;;;1.85;100.00;98847.41;5113097;28;20611;-68
2023/02/25 00:46:55;;;;;;;6.15;1.35;;;;;;;1.78;100.00;98854.56;5106776;28;20296;-69
2023/02/25 00:49:27;;;;;;;2.35;1.40;;;;;;;1.89;100.00;98840.69;5109859;28;20190;-68
2023/02/25 00:52:07;;;;;;;7.53;1.40;;;;;;;1.91;100.00;98845.81;5101528;27;20200;-69
2023/02/25 00:54:42;;;;;;;1.40;1.20;;;;;;;1.94;100.00;98848.91;5125547;27;20206;-69
2023/02/25 00:57:31;;;;;;;1.83;1.00;;;;;;;2.00;100.00;98847.31;5122885;27;20266;-70
2023/02/25 01:00:14;;;;;;;6.00;1.27;;;;;;;2.15;100.00;98840.81;5123172;27;20191;-69
2023/02/25 01:02:46;;;;;;;1.90;1.50;;;;;;;2.23;100.00;98839.03;5120048;27;20208;-69
2023/02/25 01:05:19;;;;;;;10.57;2.35;;;;;;;2.32;100.00;98840.50;5117153;27;20189;-68
2023/02/25 01:07:52;;;;;;;4.05;1.40;;;;;;;2.27;100.00;98830.41;5108924;28;20305;-69
2023/02/25 01:10:23;;;;;;;4.15;1.38;;;;;;;2.35;100.00;98829.41;5101186;27;20187;-69
2023/02/25 01:13:04;;;;;;;5.00;2.40;;;;;;;2.37;100.00;98833.50;5112805;27;20194;-69
2023/02/25 01:15:37;;;;;;;5.10;1.40;;;;;;;2.41;100.00;98832.13;5122495;27;20206;-70
2023/02/25 01:18:08;;;;;;;4.07;1.52;;;;;;;2.38;100.00;98826.34;5121966;27;20695;-69
2023/02/25 01:20:43;;;;;;;2.25;1.13;;;;;;;2.47;100.00;98825.97;5114898;28;20696;-69
2023/02/25 01:23:20;;;;;;;11.77;2.47;;;;;;;2.42;100.00;98830.28;5114373;27;20202;-69
2023/02/25 01:25:59;;;;;;;7.80;2.17;;;;;;;2.43;100.00;98826.56;5108863;28;20217;-69
2023/02/25 01:28:33;;;;;;;3.40;1.80;;;;;;;2.56;100.00;98826.63;5100224;28;20190;-70
2023/02/25 01:31:11;;;;;;;5.15;1.52;;;;;;;2.67;100.00;98823.34;5101116;28;20182;-71
2023/02/25 01:33:43;;;;;;;4.10;1.92;;;;;;;2.77;100.00;98829.13;5112928;27;20202;-69
2023/02/25 01:36:16;;;;;;;4.35;1.40;;;;;;;2.72;100.00;98823.56;5113986;27;20214;-69
2023/02/25 01:38:48;;;;;;;2.17;1.45;;;;;;;2.69;100.00;98821.31;5099669;28;20575;-68
2023/02/25 01:41:36;;;;;;;4.22;1.80;;;;;;;2.66;100.00;98827.06;5119643;28;20254;-70
2023/02/25 01:44:13;;;;;;;5.95;1.95;;;;;;;2.72;100.00;98818.22;5124957;27;20247;-69
2023/02/25 01:46:48;;;;;;;3.83;1.83;;;;;;;2.68;100.00;98819.66;5105811;28;20295;-69
2023/02/25 01:49:30;;;;;;;2.08;1.83;;;;;;;2.76;100.00;98811.44;5103527;27;20200;-68
2023/02/25 01:52:17;;;;;;;3.17;1.95;;;;;;;2.84;100.00;98815.78;5111565;27;20197;-69
2023/02/25 01:54:59;;;;;;;6.63;2.13;;;;;;;2.92;100.00;98820.94;5118390;27;20553;-69
2023/02/25 01:57:41;;;;;;;3.88;2.35;;;;;;;2.97;100.00;98819.31;5117117;27;20248;-69
2023/02/25 02:00:19;;;;;;;3.72;2.25;;;;;;;2.93;100.00;98823.41;5116474;27;20184;-69
2023/02/25 02:03:01;;;;;;;4.25;2.40;;;;;;;3.00;100.00;98834.91;5128400;27;20197;-70
2023/02/25 02:05:58;;;;;;;10.27;2.67;;;;;;;2.98;100.00;98828.16;5108217;27;20202;-69
2023/02/25 02:08:32;;;;;;;7.70;3.55;;;;;;;3.11;100.00;98816.63;5107158;27;20705;-68
2023/02/25 02:11:06;;;;;;;8.18;2.10;;;;;;;3.10;100.00;98829.16;5127867;27;20633;-70
2023/02/25 02:13:47;;;;;;;5.13;2.53;;;;;;;3.06;100.00;98828.75;5097991;28;20198;-70
2023/02/25 02:16:41;;;;;;;6.85;2.17;;;;;;;3.03;100.00;98829.19;5121930;27;20209;-69
2023/02/25 02:19:36;;;;;;;5.38;3.05;;;;;;;3.07;100.00;98826.91;5129146;27;20217;-70
2023/02/25 02:22:18;;;;;;;5.47;2.60;;;;;;;3.15;100.00;98820.56;5108167;27;20197;-68
2023/02/25 02:25:39;;;;;;;4.38;2.08;;;;;;;3.15;100.00;98821.38;5118627;27;20620;-69
2023/02/25 02:28:47;;;;;;;1.40;1.30;;;;;;;3.12;100.00;98820.97;5103620;28;20246;-68
2023/02/25 02:31:40;;;;;;;3.78;2.30;;;;;;;3.11;100.00;98835.34;5102987;28;20194;-69
2023/02/25 02:34:32;;;;;;;4.15;1.85;;;;;;;3.09;100.00;98829.41;5111486;27;20297;-69
2023/02/25 02:37:18;;;;;;;2.25;2.03;;;;;;;3.18;100.00;98820.97;5118930;27;20321;-69
2023/02/25 02:39:59;;;;;;;3.50;2.15;;;;;;;3.36;100.00;98828.38;5105163;27;20255;-67
2023/02/25 02:42:39;;;;;;;3.60;2.90;;;;;;;3.24;100.00;98814.81;5110685;27;20202;-69
2023/02/25 02:45:21;;;;;;;1.92;1.63;;;;;;;3.21;100.00;98809.88;5116332;27;20683;-69
2023/02/25 02:47:59;;;;;;;3.47;1.75;;;;;;;3.15;100.00;98818.69;5123039;27;20215;-68
2023/02/25 02:50:38;;;;;;;2.05;1.25;;;;;;;3.21;100.00;98825.91;5101158;28;20197;-68
2023/02/25 02:53:16;;;;;;;1.20;1.10;;;;;;;3.14;100.00;98832.28;5094309;28;20196;-68
2023/02/25 02:55:53;;;;;;;2.13;1.92;;;;;;;3.12;100.00;98837.00;5112262;28;20668;-68
2023/02/25 02:58:30;;;;;;;4.20;2.88;;;;;;;3.11;100.00;98840.69;5109554;27;20729;-69
2023/02/25 03:01:07;;;;;;;3.60;1.48;;;;;;;3.08;100.00;98847.28;5109366;27;20698;-70
2023/02/25 03:03:51;;;;;;;3.08;2.00;;;;;;;3.05;100.00;98850.34;5119391;27;20246;-69
2023/02/25 03:06:32;;;;;;;2.20;1.70;;;;;;;3.00;100.00;98848.28;5125271;27;20250;-69
2023/02/25 03:09:15;;;;;;;7.85;1.90;;;;;;;3.06;100.00;98855.47;5108461;28;20190;-69
2023/02/25 03:11:51;;;;;;;1.83;1.58;;;;;;;3.04;100.00;98862.91;5112891;27;20686;-69
2023/02/25 03:14:26;;;;;;;3.85;1.98;;;;;;;2.99;100.00;98870.69;5102868;27;20201;-69
2023/02/25 03:17:07;;;;;;;2.85;1.70;;;;;;;2.99;100.00;98870.69;5105403;28;20316;-68
2023/02/25 03:19:43;;;;;;;2.40;1.85;;;;;;;2.95;100.00;98877.44;5113256;28;20220;-68
2023/02/25 03:22:27;;;;;;;2.20;1.60;;;;;;;2.97;100.00;98880.75;5101851;28;20688;-69
2023/02/25 03:25:07;;;;;;;2.50;1.70;;;;;;;2.97;100.00;98875.41;5114348;27;20186;-69
2023/02/25 03:27:43;;;;;;;1.58;1.40;;;;;;;2.93;100.00;98876.84;5104642;27;20210;-69
2023/02/25 03:30:36;;;;;;;4.32;1.67;;;;;;;2.93;100.00;98886.69;5100086;28;20195;-70
2023/02/25 03:33:24;;;;;;;3.13;1.77;;;;;;;2.96;100.00;98897.78;5104164;27;20203;-69
2023/02/25 03:36:08;;;;;;;1.33;1.02;;;;;;;2.83;100.00;98896.94;5113402;27;20226;-71
2023/02/25 03:38:47;;;;;;;4.05;2.10;;;;;;;2.76;100.00;98902.25;5116696;27;20680;-68
2023/02/25 03:41:20;;;;;;;2.72;2.15;;;;;;;2.88;100.00;98900.66;5112962;27;20212;-70
2023/02/25 03:43:57;;;;;;;2.10;1.20;;;;;;;2.91;100.00;98902.91;5120052;27;20196;-68
2023/02/25 03:46:33;;;;;;;5.32;1.63;;;;;;;2.90;100.00;98914.66;5128122;27;20290;-68
2023/02/25 03:49:07;;;;;;;1.85;1.60;;;;;;;2.93;100.00;98908.91;5127278;27;20267;-69
2023/02/25 03:51:49;;;;;;;3.35;1.30;;;;;;;2.93;100.00;98916.09;5115274;28;20198;-68
2023/02/25 03:54:22;;;;;;;1.35;1.15;;;;;;;2.87;100.00;98925.72;5106099;27;20198;-70
2023/02/25 03:56:54;;;;;;;1.48;1.20;;;;;;;2.77;100.00;98919.94;5126516;27;20574;-67
2023/02/25 03:59:27;;;;;;;2.10;1.50;;;;;;;2.82;100.00;98922.81;5101017;27;20559;-74
2023/02/25 04:02:13;;;;;;;1.75;1.45;;;;;;;2.76;100.00;98918.28;5111501;27;20218;-68
2023/02/25 04:04:47;;;;;;;2.20;1.45;;;;;;;2.81;100.00;98926.50;5095196;28;20285;-69
2023/02/25 04:07:20;;;;;;;4.45;1.52;;;;;;;2.83;100.00;98932.50;5103406;28;20588;-68
2023/02/25 04:09:58;;;;;;;1.15;0.95;;;;;;;2.83;100.00;98934.34;5116506;27;20224;-69
2023/02/25 04:12:32;;;;;;;2.03;1.20;;;;;;;2.85;100.00;98933.13;5094104;28;20191;-69
2023/02/25 04:15:07;;;;;;;1.85;0.90;;;;;;;2.85;100.00;98943.81;5113121;28;20202;-68
2023/02/25 04:17:40;;;;;;;1.48;1.38;;;;;;;2.82;100.00;98949.53;5101253;27;20222;-67
2023/02/25 04:20:14;;;;;;;2.30;1.20;;;;;;;2.80;100.00;98951.59;5105612;28;20232;-68
2023/02/25 04:22:51;;;;;;;2.60;1.50;;;;;;;2.82;100.00;98960.22;5101736;27;20824;-68
2023/02/25 04:25:29;;;;;;;1.10;0.98;;;;;;;2.77;100.00;98960.00;5099062;28;20850;-69
2023/02/25 04:27:59;;;;;;;1.90;1.30;;;;;;;2.71;100.00;98960.78;5126211;27;20206;-69
2023/02/25 04:30:34;;;;;;;1.85;1.00;;;;;;;2.65;100.00;98966.94;5120225;28;20194;-69
2023/02/25 04:33:06;;;;;;;1.50;1.05;;;;;;;2.61;100.00;98960.34;5113252;28;20190;-70
2023/02/25 04:35:44;;;;;;;1.67;1.27;;;;;;;2.67;100.00;98972.06;5103461;28;20194;-70
2023/02/25 04:38:21;;;;;;;1.50;1.20;;;;;;;2.64;100.00;98978.63;5120447;28;20206;-68
2023/02/25 04:40:55;;;;;;;1.48;0.90;;;;;;;2.63;100.00;98971.63;5098243;28;20199;-67
2023/02/25 04:43:31;;;;;;;1.15;0.70;;;;;;;2.53;100.00;98976.50;5119271;28;20197;-68
2023/02/25 04:46:06;;;;;;;1.00;0.80;;;;;;;2.59;100.00;98989.09;5105336;28;20215;-68
2023/02/25 04:48:38;;;;;;;1.50;1.00;;;;;;;2.63;100.00;98985.81;5106576;28;20198;-69
2023/02/25 04:51:13;;;;;;;1.38;0.93;;;;;;;2.61;100.00;98993.19;5119690;28;20190;-69
2023/02/25 04:53:52;;;;;;;1.10;0.77;;;;;;;2.42;100.00;99006.44;5115516;28;20289;-68
2023/02/25 04:56:27;;;;;;;1.00;0.70;;;;;;;2.35;100.00;98994.88;5120349;28;20251;-68
2023/02/25 04:59:02;;;;;;;1.80;1.00;;;;;;;2.41;100.00;98991.44;5099654;28;20570;-68
2023/02/25 05:01:42;;;;;;;1.80;1.10;;;;;;;2.32;100.00;98998.78;5108585;28;20182;-68
2023/02/25 05:04:17;;;;;;;1.40;0.80;;;;;;;2.31;100.00;98988.31;5098032;28;20194;-68
2023/02/25 05:06:50;;;;;;;2.92;1.15;;;;;;;2.31;100.00;98998.97;5101681;28;20239;-68
2023/02/25 05:09:23;;;;;;;1.58;0.82;;;;;;;2.36;100.00;98993.88;5128757;28;20289;-69
2023/02/25 05:11:57;;;;;;;1.70;1.05;;;;;;;2.41;100.00;98988.78;5117187;28;20251;-68
2023/02/25 05:14:29;;;;;;;1.45;1.05;;;;;;;2.40;100.00;99000.47;5100073;28;20198;-67
2023/02/25 05:17:03;;;;;;;1.37;1.00;;;;;;;2.40;100.00;99001.28;5114285;28;20226;-68
2023/02/25 05:19:37;;;;;;;2.58;1.48;;;;;;;2.43;100.00;99008.06;5118562;28;20440;-68
2023/02/25 05:22:09;;;;;;;1.58;0.90;;;;;;;2.44;100.00;99012.41;5100392;28;20567;-68
2023/02/25 05:24:46;;;;;;;3.25;1.55;;;;;;;2.42;100.00;99011.78;5107362;28;20199;-67
2023/02/25 05:27:18;;;;;;;1.08;0.70;;;;;;;2.38;100.00;99016.66;5109149;28;20209;-68
2023/02/25 05:29:56;;;;;;;1.30;1.00;;;;;;;2.38;100.00;99021.19;5111274;28;20208;-67
2023/02/25 05:32:32;;;;;;;2.83;1.27;;;;;;;2.42;100.00;99022.47;5115109;28;20205;-69
2023/02/25 05:35:09;;;;;;;1.63;1.17;;;;;;;2.39;100.00;99026.34;5120385;27;20183;-69
2023/02/25 05:37:41;;;;;;;1.77;1.60;;;;;;;2.39;100.00;99028.19;5120436;27;20300;-69
2023/02/25 05:40:17;;;;;;;1.38;1.05;;;;;;;2.38;100.00;99029.19;5120213;27;20200;-70
2023/02/25 05:42:52;;;;;;;2.10;1.40;;;;;;;2.33;100.00;99034.28;5121332;27;20202;-69
2023/02/25 05:45:23;;;;;;;1.42;0.98;;;;;;;2.33;100.00;99042.28;5109791;27;20228;-69
2023/02/25 05:47:59;;;;;;;1.80;1.13;;;;;;;2.32;100.00;99054.84;5101605;27;20220;-69
2023/02/25 05:50:42;;;;;;;2.80;2.00;;;;;;;2.31;100.00;99052.34;5112971;27;20209;-69
2023/02/25 05:53:15;;;;;;;1.23;0.93;;;;;;;2.34;100.00;99052.78;5105697;28;20196;-69
2023/02/25 05:55:50;;;;;;;3.45;1.55;;;;;;;2.30;100.00;99067.53;5103762;28;20205;-69
2023/02/25 05:58:27;;;;;;;2.00;1.45;;;;;;;2.36;100.00;99071.28;5107682;28;20218;-69
2023/02/25 06:01:01;;;;;;;1.80;0.98;;;;;;;2.27;100.00;99077.78;5110122;27;20680;-69
2023/02/25 06:03:33;;;;;;;1.65;1.25;;;;;;;2.16;100.00;99077.28;5120061;27;20203;-70
2023/02/25 06:06:07;;;;;;;2.65;1.38;;;;;;;2.10;100.00;99072.72;5101167;28;20213;-70
2023/02/25 06:08:43;;;;;;;2.25;1.88;;;;;;;2.12;100.00;99083.19;5119374;27;20197;-69
2023/02/25 06:11:24;;;;;;;2.97;1.48;;;;;;;2.11;100.00;99094.88;5102329;27;20251;-68
2023/02/25 06:13:58;;;;;;;1.85;1.15;;;;;;;2.08;100.00;99084.59;5126301;27;20437;-70
2023/02/25 06:16:32;;;;;;;1.35;1.23;;;;;;;2.08;100.00;99101.41;5108379;28;20298;-68
2023/02/25 06:19:08;;;;;;;1.33;1.23;;;;;;;2.07;100.00;99102.44;5108325;28;20202;-69
2023/02/25 06:21:43;;;;;;;2.05;1.20;;;;;;;2.02;100.00;99107.53;5104391;28;20198;-69
2023/02/25 06:24:15;;;;;;;2.17;1.80;;;;;;;2.01;100.00;99116.53;5110597;27;20193;-69
2023/02/25 06:26:59;;;;;;;1.33;1.10;;;;;;;2.00;100.00;99125.56;5096802;28;20250;-69
2023/02/25 06:29:34;;;;;;;1.33;1.10;;;;;;;1.95;100.00;99133.31;5117633;27;20263;-68
2023/02/25 06:32:07;;;;;;;1.85;1.23;;;;;;;1.93;100.00;99124.69;5114505;27;20186;-68
2023/02/25 06:34:39;;;;;;;1.27;0.98;;;;;;;1.91;100.00;99136.53;5120518;27;20210;-68
2023/02/25 06:37:12;;;;;;;1.20;1.05;;;;;;;1.88;100.00;99140.44;5131837;27;20225;-67
2023/02/25 06:39:46;;;;;;;1.48;1.38;;;;;;;1.84;100.00;99147.13;5118087;27;20202;-68
2023/02/25 06:42:28;;;;;;;2.90;2.03;;;;;;;1.83;100.00;99161.50;5096897;28;20199;-68
2023/02/25 06:45:00;;;;;;;2.38;2.17;;;;;;;1.91;100.00;99172.03;5113937;27;20221;-68
2023/02/25 06:47:43;;;;;;;1.23;1.00;;;;;;;1.77;100.00;99162.25;5126166;27;20307;-69
2023/02/25 06:50:14;;;;;;;1.30;1.08;;;;;;;1.83;100.00;99177.50;5116567;27;20206;-69
2023/02/25 06:52:50;;;;;;;1.95;1.25;;;;;;;1.72;100.00;99181.47;5117043;27;20566;-68
2023/02/25 06:55:21;;;;;;;1.63;0.93;;;;;;;1.76;100.00;99181.91;5118371;27;20276;-69
2023/02/25 06:57:59;;;;;;;1.60;1.40;;;;;;;1.69;100.00;99191.69;5109167;27;20213;-70
2023/02/25 07:00:33;;;;;;;1.52;1.42;;;;;;;1.76;100.00;99195.25;5121946;27;20194;-69
2023/02/25 07:03:06;;;;;;;2.22;1.65;;;;;;;1.74;100.00;99199.97;5106792;28;20194;-67
2023/02/25 07:05:38;;;;;;;1.17;0.90;;;;;;;1.79;100.00;99213.56;5096128;28;20193;-68
2023/02/25 07:08:17;;;;;;;1.20;1.08;;;;;;;1.80;100.00;99219.69;5104692;28;20316;-68
2023/02/25 07:10:53;;;;;;;1.77;1.30;;;;;;;1.74;100.00;99216.75;5101690;27;20189;-67
2023/02/25 07:13:29;;;;;;;4.57;1.45;;;;;;;1.84;100.00;99224.47;5102525;28;20216;-69
2023/02/25 07:16:29;;;;;;;1.83;1.63;;;;;;;1.81;100.00;99230.19;5109348;27;20232;-69
2023/02/25 07:19:03;;;;;;;1.27;1.05;;;;;;;1.83;100.00;99236.19;5108463;27;20222;-69
2023/02/25 07:21:37;;;;;;;2.10;0.82;;;;;;;1.78;100.00;99238.56;5116322;27;20684;-70
2023/02/25 07:24:11;;;;;;;1.73;1.20;;;;;;;1.84;100.00;99248.47;5133666;27;20200;-70
2023/02/25 07:26:45;;;;;;;2.50;1.45;;;;;;;1.90;100.00;99258.41;5110795;27;20315;-69
2023/02/25 07:29:21;;;;;;;1.70;1.02;;;;;;;1.93;100.00;99279.41;5125101;27;20191;-69
2023/02/25 07:31:53;;;;;;;1.80;1.15;;;;;;;1.86;100.00;99257.13;5104141;28;20191;-68
2023/02/25 07:34:30;;;;;;;1.25;0.88;;;;;;;1.88;100.00;99257.78;5124642;27;20198;-69
2023/02/25 07:37:07;;;;;;;2.33;2.13;;;;;;;2.01;100.00;99276.63;5115464;27;20241;-69
2023/02/25 07:39:42;;;;;;;3.55;1.13;;;;;;;1.83;100.00;99272.69;5113593;28;20213;-69
2023/02/25 07:42:18;;;;;;;1.40;1.13;;;;;;;1.86;100.00;99272.31;5096802;28;20202;-69
2023/02/25 07:44:55;;;;;;;1.40;0.90;;;;;;;1.86;100.00;99273.13;5113379;27;20195;-67
2023/02/25 07:47:30;;;;;;;2.95;1.45;;;;;;;1.94;100.00;99285.53;5097796;28;20222;-68
2023/02/25 07:50:06;;;;;;;3.92;2.08;;;;;;;1.98;100.00;99277.00;5112239;27;20551;-69
2023/02/25 07:52:43;;;;;;;2.33;1.10;;;;;;;2.06;100.00;99287.56;5108882;27;20205;-70
2023/02/25 07:55:17;;;;;;;1.42;1.20;;;;;;;1.94;100.00;99291.69;5134476;27;20659;-68
2023/02/25 07:57:49;;;;;;;1.48;1.10;;;;;;;2.00;100.00;99287.47;5100222;28;20287;-68
2023/02/25 08:00:26;;;;;;;1.30;1.08;;;;;;;1.95;100.00;99293.34;5116144;28;20195;-69
2023/02/25 08:02:57;;;;;;;3.90;2.38;;;;;;;1.97;100.00;99295.84;5117068;27;20182;-68
2023/02/25 08:05:30;;;;;;;1.88;1.25;;;;;;;1.90;100.00;99295.75;5095060;28;20197;-70
2023/02/25 08:08:01;;;;;;;2.28;1.98;;;;;;;1.99;100.00;99310.63;5116124;27;20305;-69
2023/02/25 08:10:33;;;;;;;1.67;1.20;;;;;;;2.03;100.00;99309.25;5103578;27;20190;-69
2023/02/25 08:13:12;;;;;;;1.40;0.93;;;;;;;2.03;100.00;99311.91;5127023;27;20178;-69
2023/02/25 08:15:54;;;;;;;2.03;1.27;;;;;;;2.14;100.00;99318.63;5111432;27;20200;-69
2023/02/25 08:18:30;;;;;;;1.42;1.33;;;;;;;2.05;100.00;99331.25;5102791;27;20221;-70
2023/02/25 08:21:03;;;;;;;3.13;1.63;;;;;;;1.97;100.00;99318.03;5125890;27;20197;-70
2023/02/25 08:23:36;;;;;;;3.40;1.85;;;;;;;2.03;100.00;99322.59;5103853;28;20244;-69
2023/02/25 08:26:16;;;;;;;1.40;1.05;;;;;;;2.07;100.00;99333.75;5104631;28;20193;-67
2023/02/25 08:28:50;;;;;;;1.10;0.80;;;;;;;2.03;100.00;99340.47;5112477;28;20178;-69
2023/02/25 08:31:27;;;;;;;2.85;0.95;;;;;;;2.00;100.00;99344.31;5107747;28;20243;-68
2023/02/25 08:34:13;;;;;;;1.38;0.70;;;;;;;1.97;100.00;99350.03;5118411;28;20189;-68
2023/02/25 08:36:46;;;;;;;1.95;1.25;;;;;;;1.96;100.00;99343.03;5123952;28;20226;-69
2023/02/25 08:39:19;;;;;;;1.42;0.98;;;;;;;1.98;100.00;99350.88;5098526;28;20203;-69
2023/02/25 08:41:54;;;;;;;1.30;0.90;;;;;;;2.07;100.00;99355.91;5108804;28;20194;-68
2023/02/25 08:44:27;;;;;;;2.25;1.40;;;;;;;2.08;100.00;99362.88;5111976;28;20203;-69
2023/02/25 08:47:07;;;;;;;3.30;1.50;;;;;;;2.01;100.00;99369.16;5113680;28;20253;-69
2023/02/25 08:49:39;;;;;;;1.35;0.90;;;;;;;2.07;100.00;99382.59;5103650;28;20196;-69
2023/02/25 08:52:16;;;;;;;1.00;0.80;;;;;;;1.98;100.00;99373.03;5122648;28;20220;-69
2023/02/25 08:54:47;;;;;;;6.40;3.08;;;;;;;1.96;100.00;99388.38;5114994;28;20190;-68
2023/02/25 08:57:19;;;;;;;0.95;0.73;;;;;;;2.00;100.00;99389.66;5103907;28;20215;-69
2023/02/25 08:59:54;;;;;;;3.28;1.27;;;;;;;1.87;100.00;99386.81;5094717;28;20259;-68
2023/02/25 09:02:30;;;;;;;1.48;0.82;;;;;;;2.03;100.00;99402.63;5111387;28;20540;-69
2023/02/25 09:05:05;;;;;;;2.33;0.93;;;;;;;2.09;100.00;99407.25;5110654;28;20216;-69
2023/02/25 09:07:37;;;;;;;5.53;2.03;;;;;;;2.16;100.00;99418.84;5104020;28;20708;-69
2023/02/25 09:10:12;;;;;;;1.00;0.70;;;;;;;2.19;100.00;99413.13;5112422;27;20292;-70
2023/02/25 09:12:48;;;;;;;1.95;1.10;;;;;;;2.24;100.00;99425.09;5081914;28;20290;-69
2023/02/25 09:15:23;;;;;;;1.00;0.80;;;;;;;2.17;100.00;99433.84;5118537;27;20193;-69
2023/02/25 09:17:57;;;;;;;1.23;0.70;;;;;;;2.29;100.00;99433.38;5083779;28;20250;-69
2023/02/25 09:20:31;;;;;;;1.40;0.85;;;;;;;2.42;100.00;99437.03;5115046;27;20583;-69
2023/02/25 09:23:03;;;;;;;1.20;0.80;;;;;;;2.42;99.47;99445.06;5122006;27;20189;-69
2023/02/25 09:25:34;;;;;;;1.52;0.88;;;;;;;2.42;99.69;99444.25;5121794;27;20194;-68
2023/02/25 09:28:07;;;;;;;2.17;0.70;;;;;;;2.42;98.37;99442.38;5118051;27;20241;-69
2023/02/25 09:30:39;;;;;;;1.27;0.90;;;;;;;2.59;98.02;99451.03;5127546;27;20613;-70
2023/02/25 09:33:12;;;;;;;1.40;0.70;;;;;;;2.66;96.74;99451.13;5119073;27;20567;-66
2023/02/25 09:35:44;;;;;;;1.80;0.90;;;;;;;2.66;95.14;99451.97;5127101;27;20553;-69
2023/02/25 09:38:17;;;;;;;0.88;0.50;;;;;;;2.63;95.18;99457.66;5126329;27;20225;-70
2023/02/25 09:40:50;;;;;;;2.75;0.88;;;;;;;2.61;95.55;99471.19;5122042;27;20201;-68
2023/02/25 09:43:28;;;;;;;0.95;0.60;;;;;;;2.31;96.98;99482.91;5122274;27;20217;-69
2023/02/25 09:46:05;;;;;;;1.25;0.60;;;;;;;2.26;98.80;99479.13;5117018;27;20273;-69
2023/02/25 09:48:50;;;;;;;1.00;0.70;;;;;;;2.39;99.79;99473.97;5110098;27;20186;-71
2023/02/25 09:51:31;;;;;;;1.42;0.70;;;;;;;2.56;98.02;99483.47;5133193;27;20198;-70
2023/02/25 09:54:12;;;;;;;1.60;1.25;;;;;;;2.74;96.75;99485.75;5097822;27;20232;-70
2023/02/25 09:56:43;;;;;;;0.90;0.60;;;;;;;2.90;93.63;99485.53;5125007;27;20638;-70
2023/02/25 09:59:21;;;;;;;1.60;0.60;;;;;;;2.85;92.86;99493.28;5108810;27;20228;-68
2023/02/25 10:02:08;;;;;;;1.50;0.90;;;;;;;3.03;93.04;99491.88;5125194;27;20515;-71
2023/02/25 10:04:58;;;;;;;1.00;0.70;;;;;;;3.01;89.51;99496.56;5100755;28;20190;-71
2023/02/25 10:07:37;;;;;;;1.13;0.60;;;;;;;2.99;90.71;99498.63;5098224;28;20735;-68
2023/02/25 10:10:18;;;;;;;1.25;0.50;;;;;;;2.89;91.29;99514.09;5117686;27;20469;-69
2023/02/25 10:13:12;;;;;;;0.80;0.50;;;;;;;2.57;90.56;99517.16;5115048;27;20201;-68
2023/02/25 10:16:03;;;;;;;2.55;0.70;;;;;;;2.79;92.19;99515.41;5101191;27;20198;-69
2023/02/25 10:18:54;;;;;;;1.25;0.70;;;;;;;3.06;92.06;99528.91;5118217;27;20292;-69
2023/02/25 10:21:52;;;;;;;0.80;0.50;;;;;;;2.95;90.79;99532.03;5113646;28;20276;-70
2023/02/25 10:24:34;;;;;;;0.80;0.60;;;;;;;2.87;92.43;99547.34;5099795;27;20241;-69
2023/02/25 10:27:14;;;;;;;1.00;0.75;;;;;;;2.74;93.72;99545.34;5109983;27;20218;-69
2023/02/25 10:29:52;;;;;;;1.25;0.60;;;;;;;2.89;94.20;99553.34;5127484;27;20604;-69
2023/02/25 10:32:27;;;;;;;1.40;0.80;;;;;;;2.97;94.83;99562.09;5113782;27;20679;-71
2023/02/25 10:35:02;;;;;;;1.10;0.70;;;;;;;2.79;92.29;99548.28;5118531;27;20628;-71
2023/02/25 10:37:42;;;;;;;0.90;0.60;;;;;;;3.09;92.96;99558.97;5123959;27;20286;-69
2023/02/25 10:40:23;;;;;;;1.20;0.60;;;;;;;2.81;91.63;99556.13;5123922;27;20694;-68
2023/02/25 10:43:01;;;;;;;1.10;0.73;;;;;;;3.08;92.79;99568.81;5117811;27;20675;-67
2023/02/25 10:45:35;;;;;;;0.90;0.60;;;;;;;2.90;90.69;99561.19;5117610;27;20190;-70
2023/02/25 10:48:15;;;;;;;1.10;0.60;;;;;;;3.08;90.13;99568.81;5114895;27;20218;-70
2023/02/25 10:51:06;;;;;;;1.50;0.77;;;;;;;3.02;89.13;99562.38;5112181;27;20200;-71
2023/02/25 10:53:45;;;;;;;2.90;2.70;;;;;;;3.50;88.53;99573.44;5081527;28;20669;-69
2023/02/25 10:56:17;;;;;;;1.85;1.05;;;;;;;3.52;86.70;99571.41;5114630;28;20285;-70
2023/02/25 10:59:03;;;;;;;1.00;0.88;;;;;;;3.76;86.12;99572.88;5097139;27;20187;-68
2023/02/25 11:01:42;;;;;;;5.78;5.18;;;;;;;4.05;84.88;99571.94;5117833;27;20194;-69
2023/02/25 11:04:19;;;;;;;0.90;0.60;;;;;;;3.62;81.88;99577.28;5112852;28;20281;-69
2023/02/25 11:06:54;;;;;;;1.30;0.82;;;;;;;3.63;82.83;99575.44;5099958;28;20214;-68
2023/02/25 11:09:44;;;;;;;2.28;1.10;;;;;;;3.89;82.93;99589.06;5103916;27;20574;-70
2023/02/25 11:12:20;;;;;;;1.25;0.70;;;;;;;3.59;85.62;99583.00;5098945;28;20203;-69
2023/02/25 11:15:29;;;;;;;1.52;0.70;;;;;;;3.41;88.37;99598.63;5123355;27;20197;-68
2023/02/25 11:18:22;;;;;;;1.00;0.70;;;;;;;3.15;89.41;99603.66;5124088;27;20219;-69
2023/02/25 11:21:02;;;;;;;1.95;0.98;;;;;;;3.36;91.46;99607.22;5080695;28;20211;-69
2023/02/25 11:23:40;;;;;;;1.38;1.00;;;;;;;3.00;91.37;99615.16;5112728;28;20190;-68
2023/02/25 11:26:29;;;;;;;1.33;0.70;;;;;;;2.44;92.83;99629.09;5099313;28;20207;-68
2023/02/25 11:29:17;;;;;;;1.23;0.70;;;;;;;1.88;91.00;99625.88;5081873;28;20209;-69
2023/02/25 11:31:55;;;;;;;1.80;1.33;;;;;;;1.79;94.43;99626.94;5108882;28;20190;-69
2023/02/25 11:34:30;;;;;;;2.00;1.30;;;;;;;1.96;94.85;99630.31;5108402;27;20192;-69
2023/02/25 11:37:26;;;;;;;1.30;0.85;;;;;;;2.43;93.63;99622.09;5111133;27;20221;-69
2023/02/25 11:40:03;;;;;;;2.25;2.05;;;;;;;2.79;92.20;99627.59;5116253;27;20436;-68
2023/02/25 11:42:44;;;;;;;1.70;1.40;;;;;;;3.10;89.74;99630.91;5116425;27;20285;-69
2023/02/25 11:45:20;;;;;;;1.63;0.93;;;;;;;3.17;87.56;99628.34;5099364;27;20230;-69
2023/02/25 11:47:54;;;;;;;1.00;0.65;;;;;;;3.10;86.95;99643.47;5109649;27;20228;-70
2023/02/25 11:50:29;;;;;;;1.55;0.90;;;;;;;3.40;86.46;99642.41;5105837;27;20570;-70
2023/02/25 11:53:15;;;;;;;3.08;2.47;;;;;;;3.51;84.41;99641.94;5124519;27;20259;-70
2023/02/25 11:56:00;;;;;;;2.70;2.08;;;;;;;3.51;82.39;99641.94;5107221;28;20676;-68
2023/02/25 11:58:50;;;;;;;3.35;2.15;;;;;;;3.43;83.02;99658.09;5114245;27;20222;-68
2023/02/25 12:01:37;;;;;;;2.22;1.35;;;;;;;3.43;83.72;99653.59;5108572;27;20218;-70
2023/02/25 12:04:45;;;;;;;2.15;0.75;;;;;;;2.98;87.20;99659.97;5098218;28;20194;-68
2023/02/25 12:07:52;;;;;;;4.70;2.22;;;;;;;2.66;91.07;99665.63;5084505;28;20308;-69
2023/02/25 12:11:17;;;;;;;1.80;0.90;;;;;;;2.81;89.66;99669.13;5095472;28;20455;-69
2023/02/25 12:14:52;;;;;;;1.27;0.95;;;;;;;2.81;88.02;99674.47;5099417;28;20628;-67
2023/02/25 12:18:05;;;;;;;0.90;0.60;;;;;;;3.08;86.71;99690.94;5109910;28;20317;-68
2023/02/25 12:21:18;;;;;;;1.30;1.20;;;;;;;3.10;83.97;99679.03;5102505;28;20222;-68
2023/02/25 12:24:21;;;;;;;1.55;0.90;;;;;;;3.09;81.91;99693.44;5109561;28;20203;-69
2023/02/25 12:27:35;;;;;;;2.17;0.82;;;;;;;3.10;82.26;99683.56;5079422;28;20238;-68
2023/02/25 12:30:34;;;;;;;1.45;0.93;;;;;;;3.01;81.00;99701.50;5111815;28;20271;-70